sensor_id;sensor_type;location;lat;lon;timestamp;P1;durP1;ratioP1;P2;durP2;ratioP2
81217;SDS011;70689;52.494;13.420;2023-07-29T00:01:33;8.27;;;5.95;;
81217;SDS011;70689;52.494;13.420;2023-07-29T00:03:59;8.18;;;6.00;;
81217;SDS011;70689;52.494;13.420;2023-07-29T00:06:26;7.75;;;6.30;;
81217;SDS011;70689;52.494;13.420;2023-07-29T00:08:52;7.88;;;6.13;;
81217;SDS011;70689;52.494;13.420;2023-07-29T00:11:17;8.43;;;6.05;;
81217;SDS011;70689;52.494;13.420;2023-07-29T00:13:43;8.35;;;6.05;;
81217;SDS011;70689;52.494;13.420;2023-07-29T00:16:09;8.88;;;6.70;;
81217;SDS011;70689;52.494;13.420;2023-07-29T00:18:35;9.15;;;6.57;;
81217;SDS011;70689;52.494;13.420;2023-07-29T00:21:01;8.48;;;6.32;;
81217;SDS011;70689;52.494;13.420;2023-07-29T00:23:27;7.25;;;5.80;;
81217;SDS011;70689;52.494;13.420;2023-07-29T00:25:52;6.70;;;5.88;;
81217;SDS011;70689;52.494;13.420;2023-07-29T00:28:18;9.82;;;6.38;;
81217;SDS011;70689;52.494;13.420;2023-07-29T00:30:44;7.72;;;6.05;;
81217;SDS011;70689;52.494;13.420;2023-07-29T00:33:09;8.55;;;6.43;;
81217;SDS011;70689;52.494;13.420;2023-07-29T00:35:35;9.07;;;6.63;;
81217;SDS011;70689;52.494;13.420;2023-07-29T00:38:01;7.07;;;6.35;;
81217;SDS011;70689;52.494;13.420;2023-07-29T00:40:27;11.07;;;6.43;;
81217;SDS011;70689;52.494;13.420;2023-07-29T00:42:54;7.80;;;6.38;;
81217;SDS011;70689;52.494;13.420;2023-07-29T00:45:19;8.68;;;6.75;;
81217;SDS011;70689;52.494;13.420;2023-07-29T00:47:45;8.70;;;7.10;;
81217;SDS011;70689;52.494;13.420;2023-07-29T00:50:11;9.80;;;7.07;;
81217;SDS011;70689;52.494;13.420;2023-07-29T00:52:38;9.75;;;7.35;;
81217;SDS011;70689;52.494;13.420;2023-07-29T00:55:04;10.75;;;7.25;;
81217;SDS011;70689;52.494;13.420;2023-07-29T00:57:31;11.07;;;7.30;;
81217;SDS011;70689;52.494;13.420;2023-07-29T00:59:58;10.13;;;6.95;;
81217;SDS011;70689;52.494;13.420;2023-07-29T01:02:25;9.40;;;6.60;;
81217;SDS011;70689;52.494;13.420;2023-07-29T01:04:58;9.35;;;6.65;;
81217;SDS011;70689;52.494;13.420;2023-07-29T01:07:36;9.48;;;7.03;;
81217;SDS011;70689;52.494;13.420;2023-07-29T01:18:24;8.55;;;6.57;;
81217;SDS011;70689;52.494;13.420;2023-07-29T01:20:54;8.93;;;7.05;;
81217;SDS011;70689;52.494;13.420;2023-07-29T01:23:24;9.35;;;6.82;;
81217;SDS011;70689;52.494;13.420;2023-07-29T01:25:50;9.05;;;7.00;;
81217;SDS011;70689;52.494;13.420;2023-07-29T01:28:16;10.55;;;7.13;;
81217;SDS011;70689;52.494;13.420;2023-07-29T01:30:42;12.52;;;7.90;;
81217;SDS011;70689;52.494;13.420;2023-07-29T01:36:07;9.85;;;6.95;;
81217;SDS011;70689;52.494;13.420;2023-07-29T01:38:40;8.60;;;7.25;;
81217;SDS011;70689;52.494;13.420;2023-07-29T01:41:08;9.98;;;6.63;;
81217;SDS011;70689;52.494;13.420;2023-07-29T01:43:34;8.90;;;7.22;;
81217;SDS011;70689;52.494;13.420;2023-07-29T01:46:07;8.70;;;7.30;;
81217;SDS011;70689;52.494;13.420;2023-07-29T01:48:37;10.18;;;7.50;;
81217;SDS011;70689;52.494;13.420;2023-07-29T01:51:03;9.82;;;7.32;;
81217;SDS011;70689;52.494;13.420;2023-07-29T01:53:30;8.25;;;7.10;;
81217;SDS011;70689;52.494;13.420;2023-07-29T01:55:56;9.65;;;7.25;;
81217;SDS011;70689;52.494;13.420;2023-07-29T01:58:22;10.10;;;7.22;;
81217;SDS011;70689;52.494;13.420;2023-07-29T02:00:48;8.70;;;7.22;;
81217;SDS011;70689;52.494;13.420;2023-07-29T02:03:13;8.80;;;7.10;;
81217;SDS011;70689;52.494;13.420;2023-07-29T02:05:39;13.02;;;7.53;;
81217;SDS011;70689;52.494;13.420;2023-07-29T02:08:06;9.13;;;7.07;;
81217;SDS011;70689;52.494;13.420;2023-07-29T02:10:32;11.02;;;7.32;;
81217;SDS011;70689;52.494;13.420;2023-07-29T02:12:58;9.10;;;7.13;;
81217;SDS011;70689;52.494;13.420;2023-07-29T02:15:23;9.18;;;7.78;;
81217;SDS011;70689;52.494;13.420;2023-07-29T02:17:49;9.32;;;7.53;;
81217;SDS011;70689;52.494;13.420;2023-07-29T02:20:15;9.02;;;7.70;;
81217;SDS011;70689;52.494;13.420;2023-07-29T02:22:41;11.00;;;7.72;;
81217;SDS011;70689;52.494;13.420;2023-07-29T02:25:07;11.45;;;8.13;;
81217;SDS011;70689;52.494;13.420;2023-07-29T02:27:32;9.38;;;8.10;;
81217;SDS011;70689;52.494;13.420;2023-07-29T02:29:58;10.23;;;7.97;;
81217;SDS011;70689;52.494;13.420;2023-07-29T02:32:24;9.18;;;8.05;;
81217;SDS011;70689;52.494;13.420;2023-07-29T02:34:50;11.90;;;8.68;;
81217;SDS011;70689;52.494;13.420;2023-07-29T02:37:15;10.93;;;8.70;;
81217;SDS011;70689;52.494;13.420;2023-07-29T02:39:41;12.90;;;8.75;;
81217;SDS011;70689;52.494;13.420;2023-07-29T02:42:07;13.90;;;8.48;;
81217;SDS011;70689;52.494;13.420;2023-07-29T02:44:33;13.00;;;9.27;;
81217;SDS011;70689;52.494;13.420;2023-07-29T02:46:58;10.65;;;8.82;;
81217;SDS011;70689;52.494;13.420;2023-07-29T02:49:24;11.25;;;8.38;;
81217;SDS011;70689;52.494;13.420;2023-07-29T02:51:50;10.85;;;8.38;;
81217;SDS011;70689;52.494;13.420;2023-07-29T02:54:15;11.80;;;9.20;;
81217;SDS011;70689;52.494;13.420;2023-07-29T02:56:41;13.30;;;9.13;;
81217;SDS011;70689;52.494;13.420;2023-07-29T02:59:07;10.85;;;8.82;;
81217;SDS011;70689;52.494;13.420;2023-07-29T03:01:32;10.85;;;9.35;;
81217;SDS011;70689;52.494;13.420;2023-07-29T03:03:58;10.25;;;8.90;;
81217;SDS011;70689;52.494;13.420;2023-07-29T03:06:24;11.05;;;8.45;;
81217;SDS011;70689;52.494;13.420;2023-07-29T03:08:49;12.05;;;8.35;;
81217;SDS011;70689;52.494;13.420;2023-07-29T03:11:15;9.00;;;8.10;;
81217;SDS011;70689;52.494;13.420;2023-07-29T03:13:41;10.23;;;7.95;;
81217;SDS011;70689;52.494;13.420;2023-07-29T03:16:08;10.10;;;8.32;;
81217;SDS011;70689;52.494;13.420;2023-07-29T03:18:35;9.90;;;8.60;;
81217;SDS011;70689;52.494;13.420;2023-07-29T03:21:01;12.77;;;8.35;;
81217;SDS011;70689;52.494;13.420;2023-07-29T03:23:27;9.95;;;7.68;;
81217;SDS011;70689;52.494;13.420;2023-07-29T03:25:57;9.98;;;7.72;;
81217;SDS011;70689;52.494;13.420;2023-07-29T03:28:24;8.55;;;7.65;;
81217;SDS011;70689;52.494;13.420;2023-07-29T03:30:52;11.63;;;8.32;;
81217;SDS011;70689;52.494;13.420;2023-07-29T03:33:18;9.23;;;8.18;;
81217;SDS011;70689;52.494;13.420;2023-07-29T03:35:44;9.77;;;8.15;;
81217;SDS011;70689;52.494;13.420;2023-07-29T03:38:10;9.80;;;7.55;;
81217;SDS011;70689;52.494;13.420;2023-07-29T03:40:39;11.55;;;10.23;;
81217;SDS011;70689;52.494;13.420;2023-07-29T03:43:06;11.52;;;7.80;;
81217;SDS011;70689;52.494;13.420;2023-07-29T03:45:32;10.95;;;8.25;;
81217;SDS011;70689;52.494;13.420;2023-07-29T03:47:58;10.35;;;7.72;;
81217;SDS011;70689;52.494;13.420;2023-07-29T03:50:24;10.63;;;8.18;;
81217;SDS011;70689;52.494;13.420;2023-07-29T03:52:50;11.50;;;8.43;;
81217;SDS011;70689;52.494;13.420;2023-07-29T03:55:16;12.43;;;8.00;;
81217;SDS011;70689;52.494;13.420;2023-07-29T03:57:42;11.57;;;7.72;;
81217;SDS011;70689;52.494;13.420;2023-07-29T04:00:07;12.85;;;7.80;;
81217;SDS011;70689;52.494;13.420;2023-07-29T04:02:34;9.15;;;7.40;;
81217;SDS011;70689;52.494;13.420;2023-07-29T04:05:02;12.27;;;7.97;;
81217;SDS011;70689;52.494;13.420;2023-07-29T04:07:29;10.68;;;7.60;;
81217;SDS011;70689;52.494;13.420;2023-07-29T04:09:55;9.23;;;7.60;;
81217;SDS011;70689;52.494;13.420;2023-07-29T04:12:21;16.70;;;10.73;;
81217;SDS011;70689;52.494;13.420;2023-07-29T04:14:48;9.48;;;7.50;;
81217;SDS011;70689;52.494;13.420;2023-07-29T04:17:14;10.55;;;7.63;;
81217;SDS011;70689;52.494;13.420;2023-07-29T04:19:39;8.77;;;7.82;;
81217;SDS011;70689;52.494;13.420;2023-07-29T04:22:05;12.68;;;7.40;;
81217;SDS011;70689;52.494;13.420;2023-07-29T04:24:31;10.05;;;7.85;;
81217;SDS011;70689;52.494;13.420;2023-07-29T04:26:56;8.88;;;7.35;;
81217;SDS011;70689;52.494;13.420;2023-07-29T04:29:22;11.05;;;7.65;;
81217;SDS011;70689;52.494;13.420;2023-07-29T04:31:49;9.20;;;7.32;;
81217;SDS011;70689;52.494;13.420;2023-07-29T04:34:15;8.68;;;7.53;;
81217;SDS011;70689;52.494;13.420;2023-07-29T04:36:42;9.25;;;7.60;;
81217;SDS011;70689;52.494;13.420;2023-07-29T04:39:07;7.80;;;7.00;;
81217;SDS011;70689;52.494;13.420;2023-07-29T04:41:34;10.98;;;7.22;;
81217;SDS011;70689;52.494;13.420;2023-07-29T04:43:59;7.97;;;7.18;;
81217;SDS011;70689;52.494;13.420;2023-07-29T04:46:25;7.90;;;6.75;;
81217;SDS011;70689;52.494;13.420;2023-07-29T04:48:51;9.43;;;7.13;;
81217;SDS011;70689;52.494;13.420;2023-07-29T04:51:16;8.25;;;6.50;;
81217;SDS011;70689;52.494;13.420;2023-07-29T04:53:42;8.48;;;6.95;;
81217;SDS011;70689;52.494;13.420;2023-07-29T04:56:07;7.75;;;6.65;;
81217;SDS011;70689;52.494;13.420;2023-07-29T04:58:33;9.30;;;6.70;;
81217;SDS011;70689;52.494;13.420;2023-07-29T05:01:00;7.97;;;6.57;;
81217;SDS011;70689;52.494;13.420;2023-07-29T05:03:27;7.72;;;6.63;;
81217;SDS011;70689;52.494;13.420;2023-07-29T05:05:52;7.22;;;6.35;;
81217;SDS011;70689;52.494;13.420;2023-07-29T05:08:19;10.77;;;6.53;;
81217;SDS011;70689;52.494;13.420;2023-07-29T05:10:48;8.68;;;6.43;;
81217;SDS011;70689;52.494;13.420;2023-07-29T05:13:15;6.90;;;6.20;;
81217;SDS011;70689;52.494;13.420;2023-07-29T05:15:40;7.45;;;6.65;;
81217;SDS011;70689;52.494;13.420;2023-07-29T05:18:06;8.80;;;6.45;;
81217;SDS011;70689;52.494;13.420;2023-07-29T05:20:31;7.38;;;6.13;;
81217;SDS011;70689;52.494;13.420;2023-07-29T05:22:57;7.22;;;6.53;;
81217;SDS011;70689;52.494;13.420;2023-07-29T05:25:23;10.10;;;6.85;;
81217;SDS011;70689;52.494;13.420;2023-07-29T05:27:48;9.30;;;6.57;;
81217;SDS011;70689;52.494;13.420;2023-07-29T05:30:14;7.38;;;5.68;;
81217;SDS011;70689;52.494;13.420;2023-07-29T05:32:40;7.28;;;5.60;;
81217;SDS011;70689;52.494;13.420;2023-07-29T05:35:05;6.55;;;5.78;;
81217;SDS011;70689;52.494;13.420;2023-07-29T05:37:31;7.30;;;6.07;;
81217;SDS011;70689;52.494;13.420;2023-07-29T05:39:57;8.98;;;5.65;;
81217;SDS011;70689;52.494;13.420;2023-07-29T05:42:23;8.07;;;6.00;;
81217;SDS011;70689;52.494;13.420;2023-07-29T05:44:49;6.72;;;5.80;;
81217;SDS011;70689;52.494;13.420;2023-07-29T05:47:15;6.50;;;5.88;;
81217;SDS011;70689;52.494;13.420;2023-07-29T05:49:40;6.95;;;5.72;;
81217;SDS011;70689;52.494;13.420;2023-07-29T05:52:06;6.80;;;6.03;;
81217;SDS011;70689;52.494;13.420;2023-07-29T05:54:32;7.32;;;5.65;;
81217;SDS011;70689;52.494;13.420;2023-07-29T05:56:58;7.38;;;6.05;;
81217;SDS011;70689;52.494;13.420;2023-07-29T05:59:23;7.95;;;5.63;;
81217;SDS011;70689;52.494;13.420;2023-07-29T06:01:49;6.88;;;5.25;;
81217;SDS011;70689;52.494;13.420;2023-07-29T06:04:15;7.45;;;5.35;;
81217;SDS011;70689;52.494;13.420;2023-07-29T06:06:41;7.13;;;5.70;;
81217;SDS011;70689;52.494;13.420;2023-07-29T06:09:06;6.85;;;5.60;;
81217;SDS011;70689;52.494;13.420;2023-07-29T06:11:32;7.45;;;5.50;;
81217;SDS011;70689;52.494;13.420;2023-07-29T06:13:58;7.90;;;5.47;;
81217;SDS011;70689;52.494;13.420;2023-07-29T06:16:23;8.48;;;5.72;;
81217;SDS011;70689;52.494;13.420;2023-07-29T06:18:49;6.43;;;5.45;;
81217;SDS011;70689;52.494;13.420;2023-07-29T06:21:15;5.85;;;4.85;;
81217;SDS011;70689;52.494;13.420;2023-07-29T06:23:45;7.20;;;5.22;;
81217;SDS011;70689;52.494;13.420;2023-07-29T06:26:11;5.70;;;4.95;;
81217;SDS011;70689;52.494;13.420;2023-07-29T06:28:37;5.30;;;4.80;;
81217;SDS011;70689;52.494;13.420;2023-07-29T06:31:02;6.05;;;4.70;;
81217;SDS011;70689;52.494;13.420;2023-07-29T06:33:28;9.43;;;4.75;;
81217;SDS011;70689;52.494;13.420;2023-07-29T06:35:54;5.25;;;4.70;;
81217;SDS011;70689;52.494;13.420;2023-07-29T06:38:19;4.93;;;4.43;;
81217;SDS011;70689;52.494;13.420;2023-07-29T06:40:49;5.88;;;4.57;;
81217;SDS011;70689;52.494;13.420;2023-07-29T06:43:15;5.75;;;4.57;;
81217;SDS011;70689;52.494;13.420;2023-07-29T06:45:41;4.75;;;4.25;;
81217;SDS011;70689;52.494;13.420;2023-07-29T06:48:07;10.60;;;4.25;;
81217;SDS011;70689;52.494;13.420;2023-07-29T06:50:33;6.43;;;4.43;;
81217;SDS011;70689;52.494;13.420;2023-07-29T06:52:59;5.35;;;4.07;;
81217;SDS011;70689;52.494;13.420;2023-07-29T06:55:24;7.63;;;4.05;;
81217;SDS011;70689;52.494;13.420;2023-07-29T06:57:50;4.43;;;4.03;;
81217;SDS011;70689;52.494;13.420;2023-07-29T07:00:16;6.57;;;4.00;;
81217;SDS011;70689;52.494;13.420;2023-07-29T07:02:42;6.35;;;4.20;;
81217;SDS011;70689;52.494;13.420;2023-07-29T07:05:08;5.53;;;4.22;;
81217;SDS011;70689;52.494;13.420;2023-07-29T07:07:33;5.75;;;4.18;;
81217;SDS011;70689;52.494;13.420;2023-07-29T07:09:59;4.20;;;3.80;;
81217;SDS011;70689;52.494;13.420;2023-07-29T07:12:25;6.28;;;4.20;;
81217;SDS011;70689;52.494;13.420;2023-07-29T07:14:50;6.60;;;4.55;;
81217;SDS011;70689;52.494;13.420;2023-07-29T07:17:16;4.85;;;4.00;;
81217;SDS011;70689;52.494;13.420;2023-07-29T07:19:42;6.55;;;3.88;;
81217;SDS011;70689;52.494;13.420;2023-07-29T07:22:09;5.63;;;4.00;;
81217;SDS011;70689;52.494;13.420;2023-07-29T07:24:58;6.10;;;4.00;;
81217;SDS011;70689;52.494;13.420;2023-07-29T07:27:23;4.45;;;4.05;;
81217;SDS011;70689;52.494;13.420;2023-07-29T07:29:49;4.20;;;3.80;;
81217;SDS011;70689;52.494;13.420;2023-07-29T07:32:15;5.03;;;4.53;;
81217;SDS011;70689;52.494;13.420;2023-07-29T07:34:40;6.35;;;4.50;;
81217;SDS011;70689;52.494;13.420;2023-07-29T07:37:06;4.70;;;4.30;;
81217;SDS011;70689;52.494;13.420;2023-07-29T07:39:32;4.88;;;4.15;;
81217;SDS011;70689;52.494;13.420;2023-07-29T07:41:57;5.20;;;4.50;;
81217;SDS011;70689;52.494;13.420;2023-07-29T07:44:23;4.85;;;3.90;;
81217;SDS011;70689;52.494;13.420;2023-07-29T07:46:51;5.18;;;3.92;;
81217;SDS011;70689;52.494;13.420;2023-07-29T07:49:17;5.05;;;3.92;;
81217;SDS011;70689;52.494;13.420;2023-07-29T07:51:43;5.25;;;3.90;;
81217;SDS011;70689;52.494;13.420;2023-07-29T07:54:09;4.75;;;4.28;;
81217;SDS011;70689;52.494;13.420;2023-07-29T07:56:35;7.30;;;4.07;;
81217;SDS011;70689;52.494;13.420;2023-07-29T07:59:00;5.28;;;3.90;;
81217;SDS011;70689;52.494;13.420;2023-07-29T08:01:26;6.20;;;4.40;;
81217;SDS011;70689;52.494;13.420;2023-07-29T08:03:52;3.80;;;3.50;;
81217;SDS011;70689;52.494;13.420;2023-07-29T08:06:17;5.40;;;3.58;;
81217;SDS011;70689;52.494;13.420;2023-07-29T08:08:43;3.75;;;3.30;;
81217;SDS011;70689;52.494;13.420;2023-07-29T08:11:09;5.78;;;3.80;;
81217;SDS011;70689;52.494;13.420;2023-07-29T08:13:34;4.53;;;3.30;;
81217;SDS011;70689;52.494;13.420;2023-07-29T08:16:00;3.85;;;3.38;;
81217;SDS011;70689;52.494;13.420;2023-07-29T08:18:26;4.85;;;3.67;;
81217;SDS011;70689;52.494;13.420;2023-07-29T08:20:55;5.57;;;3.40;;
81217;SDS011;70689;52.494;13.420;2023-07-29T08:23:27;3.40;;;3.10;;
81217;SDS011;70689;52.494;13.420;2023-07-29T08:25:54;4.30;;;3.30;;
81217;SDS011;70689;52.494;13.420;2023-07-29T08:28:26;4.25;;;3.28;;
81217;SDS011;70689;52.494;13.420;2023-07-29T08:30:56;5.45;;;3.50;;
81217;SDS011;70689;52.494;13.420;2023-07-29T08:33:22;4.90;;;3.15;;
81217;SDS011;70689;52.494;13.420;2023-07-29T08:35:48;5.35;;;3.40;;
81217;SDS011;70689;52.494;13.420;2023-07-29T08:38:14;3.80;;;3.40;;
81217;SDS011;70689;52.494;13.420;2023-07-29T08:43:35;3.60;;;3.30;;
81217;SDS011;70689;52.494;13.420;2023-07-29T08:46:03;4.88;;;3.40;;
81217;SDS011;70689;52.494;13.420;2023-07-29T08:48:32;4.45;;;3.47;;
81217;SDS011;70689;52.494;13.420;2023-07-29T08:51:05;4.28;;;3.25;;
81217;SDS011;70689;52.494;13.420;2023-07-29T08:53:34;3.60;;;3.30;;
81217;SDS011;70689;52.494;13.420;2023-07-29T08:56:01;5.72;;;3.30;;
81217;SDS011;70689;52.494;13.420;2023-07-29T08:58:26;3.70;;;3.40;;
81217;SDS011;70689;52.494;13.420;2023-07-29T09:00:53;4.63;;;3.58;;
81217;SDS011;70689;52.494;13.420;2023-07-29T09:03:19;4.25;;;3.35;;
81217;SDS011;70689;52.494;13.420;2023-07-29T09:05:45;4.07;;;3.50;;
81217;SDS011;70689;52.494;13.420;2023-07-29T09:08:12;3.60;;;3.30;;
81217;SDS011;70689;52.494;13.420;2023-07-29T09:10:39;5.82;;;3.20;;
81217;SDS011;70689;52.494;13.420;2023-07-29T09:13:04;6.22;;;4.78;;
81217;SDS011;70689;52.494;13.420;2023-07-29T09:15:31;6.78;;;3.67;;
81217;SDS011;70689;52.494;13.420;2023-07-29T09:17:59;3.33;;;3.03;;
81217;SDS011;70689;52.494;13.420;2023-07-29T09:20:33;3.65;;;2.90;;
81217;SDS011;70689;52.494;13.420;2023-07-29T09:22:59;2.92;;;2.70;;
81217;SDS011;70689;52.494;13.420;2023-07-29T09:25:25;4.78;;;3.17;;
81217;SDS011;70689;52.494;13.420;2023-07-29T09:27:52;3.15;;;2.85;;
81217;SDS011;70689;52.494;13.420;2023-07-29T09:30:23;4.20;;;3.10;;
81217;SDS011;70689;52.494;13.420;2023-07-29T09:32:52;3.42;;;2.83;;
81217;SDS011;70689;52.494;13.420;2023-07-29T09:35:23;3.88;;;3.08;;
81217;SDS011;70689;52.494;13.420;2023-07-29T09:37:52;3.35;;;3.05;;
81217;SDS011;70689;52.494;13.420;2023-07-29T09:40:18;10.25;;;2.92;;
81217;SDS011;70689;52.494;13.420;2023-07-29T09:42:48;3.10;;;2.80;;
81217;SDS011;70689;52.494;13.420;2023-07-29T09:45:21;3.47;;;3.17;;
81217;SDS011;70689;52.494;13.420;2023-07-29T09:47:48;3.05;;;2.75;;
81217;SDS011;70689;52.494;13.420;2023-07-29T09:50:14;4.13;;;3.03;;
81217;SDS011;70689;52.494;13.420;2023-07-29T09:52:41;4.60;;;2.40;;
81217;SDS011;70689;52.494;13.420;2023-07-29T09:55:07;3.45;;;2.72;;
81217;SDS011;70689;52.494;13.420;2023-07-29T09:57:39;3.15;;;2.85;;
81217;SDS011;70689;52.494;13.420;2023-07-29T10:00:06;2.80;;;2.60;;
81217;SDS011;70689;52.494;13.420;2023-07-29T10:02:36;2.90;;;2.70;;
81217;SDS011;70689;52.494;13.420;2023-07-29T10:05:07;2.78;;;2.58;;
81217;SDS011;70689;52.494;13.420;2023-07-29T10:07:37;4.18;;;2.65;;
81217;SDS011;70689;52.494;13.420;2023-07-29T10:10:04;2.78;;;2.58;;
81217;SDS011;70689;52.494;13.420;2023-07-29T10:12:31;2.63;;;2.42;;
81217;SDS011;70689;52.494;13.420;2023-07-29T10:15:04;3.10;;;2.30;;
81217;SDS011;70689;52.494;13.420;2023-07-29T10:17:35;2.60;;;2.40;;
81217;SDS011;70689;52.494;13.420;2023-07-29T10:20:03;2.40;;;2.20;;
81217;SDS011;70689;52.494;13.420;2023-07-29T10:22:36;2.72;;;2.50;;
81217;SDS011;70689;52.494;13.420;2023-07-29T10:25:04;5.53;;;3.30;;
81217;SDS011;70689;52.494;13.420;2023-07-29T10:27:42;4.85;;;2.53;;
81217;SDS011;70689;52.494;13.420;2023-07-29T10:30:08;2.83;;;2.63;;
81217;SDS011;70689;52.494;13.420;2023-07-29T10:32:38;5.18;;;2.58;;
81217;SDS011;70689;52.494;13.420;2023-07-29T10:35:06;2.90;;;2.28;;
81217;SDS011;70689;52.494;13.420;2023-07-29T10:37:32;3.40;;;2.50;;
81217;SDS011;70689;52.494;13.420;2023-07-29T10:39:58;2.40;;;2.20;;
81217;SDS011;70689;52.494;13.420;2023-07-29T10:42:24;2.30;;;2.10;;
81217;SDS011;70689;52.494;13.420;2023-07-29T10:44:50;3.05;;;2.05;;
81217;SDS011;70689;52.494;13.420;2023-07-29T10:47:23;3.05;;;1.95;;
81217;SDS011;70689;52.494;13.420;2023-07-29T10:49:51;3.30;;;2.20;;
81217;SDS011;70689;52.494;13.420;2023-07-29T10:55:00;3.47;;;2.20;;
81217;SDS011;70689;52.494;13.420;2023-07-29T10:59:57;2.10;;;1.90;;
81217;SDS011;70689;52.494;13.420;2023-07-29T11:02:30;4.45;;;2.15;;
81217;SDS011;70689;52.494;13.420;2023-07-29T11:04:56;2.28;;;1.67;;
81217;SDS011;70689;52.494;13.420;2023-07-29T11:07:24;1.90;;;1.80;;
81217;SDS011;70689;52.494;13.420;2023-07-29T11:15:13;2.28;;;2.08;;
81217;SDS011;70689;52.494;13.420;2023-07-29T11:17:40;2.65;;;2.03;;
81217;SDS011;70689;52.494;13.420;2023-07-29T11:20:08;3.42;;;1.63;;
81217;SDS011;70689;52.494;13.420;2023-07-29T11:22:34;5.38;;;1.33;;
81217;SDS011;70689;52.494;13.420;2023-07-29T11:25:00;2.10;;;1.15;;
81217;SDS011;70689;52.494;13.420;2023-07-29T11:27:26;3.08;;;1.60;;
81217;SDS011;70689;52.494;13.420;2023-07-29T11:30:01;1.38;;;1.20;;
81217;SDS011;70689;52.494;13.420;2023-07-29T11:32:32;3.47;;;1.70;;
81217;SDS011;70689;52.494;13.420;2023-07-29T11:35:06;3.95;;;2.00;;
81217;SDS011;70689;52.494;13.420;2023-07-29T11:37:36;2.92;;;1.90;;
81217;SDS011;70689;52.494;13.420;2023-07-29T11:40:03;2.42;;;1.90;;
81217;SDS011;70689;52.494;13.420;2023-07-29T11:42:33;2.67;;;1.65;;
81217;SDS011;70689;52.494;13.420;2023-07-29T11:44:59;4.07;;;2.40;;
81217;SDS011;70689;52.494;13.420;2023-07-29T11:47:26;4.72;;;2.45;;
81217;SDS011;70689;52.494;13.420;2023-07-29T11:49:52;2.40;;;2.20;;
81217;SDS011;70689;52.494;13.420;2023-07-29T11:52:18;3.17;;;1.98;;
81217;SDS011;70689;52.494;13.420;2023-07-29T11:54:45;2.22;;;1.90;;
81217;SDS011;70689;52.494;13.420;2023-07-29T11:57:15;4.10;;;2.40;;
81217;SDS011;70689;52.494;13.420;2023-07-29T11:59:43;3.47;;;2.20;;
81217;SDS011;70689;52.494;13.420;2023-07-29T12:02:13;2.92;;;2.20;;
81217;SDS011;70689;52.494;13.420;2023-07-29T12:04:40;6.95;;;2.50;;
81217;SDS011;70689;52.494;13.420;2023-07-29T12:07:08;5.32;;;3.20;;
81217;SDS011;70689;52.494;13.420;2023-07-29T12:09:34;4.22;;;3.15;;
81217;SDS011;70689;52.494;13.420;2023-07-29T12:12:01;3.25;;;2.85;;
81217;SDS011;70689;52.494;13.420;2023-07-29T12:14:28;5.75;;;3.70;;
81217;SDS011;70689;52.494;13.420;2023-07-29T12:16:54;5.30;;;3.40;;
81217;SDS011;70689;52.494;13.420;2023-07-29T12:19:20;5.38;;;3.20;;
81217;SDS011;70689;52.494;13.420;2023-07-29T12:21:47;4.43;;;2.80;;
81217;SDS011;70689;52.494;13.420;2023-07-29T12:24:13;5.20;;;4.32;;
81217;SDS011;70689;52.494;13.420;2023-07-29T12:26:40;7.30;;;3.75;;
81217;SDS011;70689;52.494;13.420;2023-07-29T12:29:16;4.38;;;3.20;;
81217;SDS011;70689;52.494;13.420;2023-07-29T12:31:45;3.03;;;2.53;;
81217;SDS011;70689;52.494;13.420;2023-07-29T12:34:20;2.78;;;1.85;;
81217;SDS011;70689;52.494;13.420;2023-07-29T12:36:47;4.47;;;2.60;;
81217;SDS011;70689;52.494;13.420;2023-07-29T12:41:53;3.08;;;2.50;;
81217;SDS011;70689;52.494;13.420;2023-07-29T12:44:22;3.20;;;2.55;;
81217;SDS011;70689;52.494;13.420;2023-07-29T12:46:48;6.75;;;2.42;;
81217;SDS011;70689;52.494;13.420;2023-07-29T12:49:14;3.35;;;2.50;;
81217;SDS011;70689;52.494;13.420;2023-07-29T12:51:40;2.90;;;2.47;;
81217;SDS011;70689;52.494;13.420;2023-07-29T12:54:05;4.88;;;2.45;;
81217;SDS011;70689;52.494;13.420;2023-07-29T12:56:32;4.32;;;2.50;;
81217;SDS011;70689;52.494;13.420;2023-07-29T12:58:59;2.72;;;2.53;;
81217;SDS011;70689;52.494;13.420;2023-07-29T13:01:26;3.40;;;2.05;;
81217;SDS011;70689;52.494;13.420;2023-07-29T13:03:52;2.83;;;2.30;;
81217;SDS011;70689;52.494;13.420;2023-07-29T13:06:18;3.17;;;2.28;;
81217;SDS011;70689;52.494;13.420;2023-07-29T13:08:44;4.72;;;2.50;;
81217;SDS011;70689;52.494;13.420;2023-07-29T13:11:10;3.30;;;2.30;;
81217;SDS011;70689;52.494;13.420;2023-07-29T13:13:36;2.88;;;2.42;;
81217;SDS011;70689;52.494;13.420;2023-07-29T13:16:02;2.95;;;2.40;;
81217;SDS011;70689;52.494;13.420;2023-07-29T13:18:28;4.20;;;2.60;;
81217;SDS011;70689;52.494;13.420;2023-07-29T13:20:54;2.60;;;2.40;;
81217;SDS011;70689;52.494;13.420;2023-07-29T13:23:20;2.70;;;2.42;;
81217;SDS011;70689;52.494;13.420;2023-07-29T13:25:46;3.72;;;2.70;;
81217;SDS011;70689;52.494;13.420;2023-07-29T13:28:12;4.03;;;2.60;;
81217;SDS011;70689;52.494;13.420;2023-07-29T13:30:41;2.72;;;2.30;;
81217;SDS011;70689;52.494;13.420;2023-07-29T13:33:07;2.95;;;2.60;;
81217;SDS011;70689;52.494;13.420;2023-07-29T13:35:33;3.25;;;2.80;;
81217;SDS011;70689;52.494;13.420;2023-07-29T13:37:59;4.80;;;2.90;;
81217;SDS011;70689;52.494;13.420;2023-07-29T13:40:25;4.07;;;2.50;;
81217;SDS011;70689;52.494;13.420;2023-07-29T13:42:51;2.92;;;2.60;;
81217;SDS011;70689;52.494;13.420;2023-07-29T13:45:17;3.03;;;2.30;;
81217;SDS011;70689;52.494;13.420;2023-07-29T13:47:43;2.60;;;2.10;;
81217;SDS011;70689;52.494;13.420;2023-07-29T13:50:09;2.13;;;1.92;;
81217;SDS011;70689;52.494;13.420;2023-07-29T13:52:35;2.42;;;1.98;;
81217;SDS011;70689;52.494;13.420;2023-07-29T13:55:02;2.40;;;2.13;;
81217;SDS011;70689;52.494;13.420;2023-07-29T13:57:28;2.03;;;1.90;;
81217;SDS011;70689;52.494;13.420;2023-07-29T13:59:54;1.90;;;1.80;;
81217;SDS011;70689;52.494;13.420;2023-07-29T14:02:20;1.90;;;1.60;;
81217;SDS011;70689;52.494;13.420;2023-07-29T14:04:45;2.35;;;1.85;;
81217;SDS011;70689;52.494;13.420;2023-07-29T14:07:11;1.70;;;1.60;;
81217;SDS011;70689;52.494;13.420;2023-07-29T14:09:37;2.10;;;1.90;;
81217;SDS011;70689;52.494;13.420;2023-07-29T14:12:03;1.90;;;1.80;;
81217;SDS011;70689;52.494;13.420;2023-07-29T14:14:30;2.10;;;1.90;;
81217;SDS011;70689;52.494;13.420;2023-07-29T14:16:56;3.60;;;2.05;;
81217;SDS011;70689;52.494;13.420;2023-07-29T14:19:22;1.80;;;1.70;;
81217;SDS011;70689;52.494;13.420;2023-07-29T14:21:48;3.40;;;1.90;;
81217;SDS011;70689;52.494;13.420;2023-07-29T14:24:14;4.88;;;2.20;;
81217;SDS011;70689;52.494;13.420;2023-07-29T14:26:40;1.90;;;1.80;;
81217;SDS011;70689;52.494;13.420;2023-07-29T14:29:06;2.30;;;1.83;;
81217;SDS011;70689;52.494;13.420;2023-07-29T14:31:32;6.13;;;2.10;;
81217;SDS011;70689;52.494;13.420;2023-07-29T14:33:58;2.30;;;2.10;;
81217;SDS011;70689;52.494;13.420;2023-07-29T14:36:24;2.22;;;1.90;;
81217;SDS011;70689;52.494;13.420;2023-07-29T14:38:50;2.35;;;2.00;;
81217;SDS011;70689;52.494;13.420;2023-07-29T14:41:16;2.10;;;1.90;;
81217;SDS011;70689;52.494;13.420;2023-07-29T14:43:42;2.17;;;1.60;;
81217;SDS011;70689;52.494;13.420;2023-07-29T14:46:07;1.85;;;1.75;;
81217;SDS011;70689;52.494;13.420;2023-07-29T14:48:33;2.00;;;1.80;;
81217;SDS011;70689;52.494;13.420;2023-07-29T14:50:59;1.70;;;1.60;;
81217;SDS011;70689;52.494;13.420;2023-07-29T14:53:24;2.10;;;1.90;;
81217;SDS011;70689;52.494;13.420;2023-07-29T14:55:50;2.00;;;1.80;;
81217;SDS011;70689;52.494;13.420;2023-07-29T14:58:16;2.28;;;1.75;;